x

Newport, Or (nwpo3) Weather Station

7:00am - Fri 26th Aug 2016 All times are PDT. -7 hours from GMT.

  • Wind
    7mph
  • Air Temp 50°f
  • Sea Pressure 1011.7mb
  • Newport, Or
  • Newport, Or

More Historic Weather Station data

Upgrade to MSW Pro to gain access to the past 30 days of data for over 8000 Wavebouys and Weather Stations around the globe.

Join Pro

Comparision Forecast

View Surf forecast
   
Fri 08/26 7:00am 7
mph
1011.7mb 50f
6:00am 6 7 mph 1011.6mb 50f
5:00am 7 8 mph 1011.5mb 50f
4:00am 5 6 mph 1011.7mb 52f
3:00am 7
mph
1011.7mb 57f
2:00am 5 7 mph 1011.8mb 55f
1:00am 7 8 mph 1012.1mb 60f
12:00am 6 7 mph 1012.4mb 53f
Thu 08/25 11:00pm 2 3 mph 1012.4mb 53f
10:00pm 10 11 mph 1012.5mb 56f
9:00pm 20 23 mph 1012.2mb 58f
8:00pm 23 24 mph 1012mb 58f
7:00pm 25 28 mph 1012mb 61f
6:00pm 22 24 mph 1012.4mb 63f
5:00pm 20 23 mph 1012.9mb 63f
4:00pm 21 22 mph 1013.3mb 62f
3:00pm 25 28 mph 1013.7mb 68f
2:00pm 13 14 mph 1014.6mb 60f
1:00pm 11 13 mph 1015.4mb 58f
12:00pm 7 8 mph 1015.9mb 61f
11:00am 9 11 mph 1016.4mb 60f
10:00am 8 10 mph 1016.7mb -
9:00am 7 8 mph 1017mb 64f
8:00am 8 9 mph 1017.1mb 57f
7:00am 7 8 mph 1017mb 54f
6:00am 7
mph
1016.8mb 55f
5:00am 6 7 mph 1016.7mb 56f
4:00am 6 7 mph 1016.8mb 55f
3:00am 9 10 mph 1016.9mb 57f
2:00am 5 6 mph 1017.1mb 54f
1:00am 7 8 mph 1017.1mb 57f
12:00am 5 6 mph 1017.4mb 55f
Wed 08/24 11:00pm 6 7 mph 1017.4mb 52f
10:00pm 6 7 mph 1017.4mb 54f
9:00pm 13 15 mph 1017.5mb 56f
8:00pm 20 21 mph 1017.2mb 56f
7:00pm 20 22 mph 1017.2mb 55f
6:00pm 21 23 mph 1017.6mb 55f
5:00pm 17 20 mph 1018.2mb 54f
4:00pm 17 18 mph 1018.6mb 54f
3:00pm 21 23 mph 1019.2mb 53f
2:00pm 18 21 mph 1020mb 52f
1:00pm 15 16 mph 1020.5mb 50f
12:00pm 16 18 mph 1020.9mb 49f
11:00am 11 15 mph 1021.5mb 49f
10:00am 9 10 mph 1021.6mb 49f
9:00am 5 6 mph 1021.6mb 50f
8:00am  -  1 mph 1021.6mb 49f
7:00am 3
mph
1021.5mb 48f
6:00am 5
mph
1021.2mb 48f
5:00am 2 3 mph 1021mb 49f
4:00am 2
mph
1021mb 49f
3:00am 2
mph
1020.9mb 47f
2:00am 3
mph
1021mb 49f
1:00am 2 3 mph 1021.3mb 51f
12:00am  -  1 mph 1021.5mb 51f
Tue 08/23 11:00pm 1 2 mph 1021.5mb 52f
10:00pm 3 6 mph 1021.3mb 52f
9:00pm 17 20 mph 1021mb 54f
8:00pm 10 11 mph 1021mb 52f
7:00pm 13 16 mph 1020.8mb 51f
6:00pm 11 14 mph 1021mb 51f
5:00pm 15 16 mph 1021.3mb 51f
4:00pm 13 15 mph 1021.7mb 50f
3:00pm 16 17 mph 1021.6mb 51f
2:00pm 16 18 mph 1021.8mb 50f
1:00pm 16 17 mph 1021.8mb 49f
12:00pm 16 18 mph 1021.8mb 50f
11:00am 15 17 mph 1021.9mb 50f
10:00am 13 14 mph 1021.8mb 50f
9:00am 11 13 mph 1021.4mb 50f
8:00am 3
mph
1021.2mb 48f
7:00am 3
mph
1020.8mb 48f
6:00am 5 6 mph 1020mb 48f
5:00am 1 2 mph 1019.9mb 49f
4:00am 3
mph
1019.8mb 50f
3:00am 2
mph
1019.6mb 50f
2:00am 2
mph
1019.6mb 50f
1:00am 11 13 mph 1019.5mb 51f
12:00am 11 14 mph 1019.4mb 53f
Mon 08/22 11:00pm 13 14 mph 1019.2mb 53f
10:00pm 14 16 mph 1019mb 54f
9:00pm 22 25 mph 1018.6mb 54f
8:00pm 23 26 mph 1018.1mb 54f
7:00pm 25 26 mph 1017.7mb 55f
6:00pm 24 29 mph 1017.9mb 55f
5:00pm 24 29 mph 1018.1mb 55f
4:00pm 25 28 mph 1018.2mb 54f